createdAt,value
2016-07-15T00:00:05.592Z,0
2016-07-15T00:01:05.591Z,0
2016-07-15T00:02:06.280Z,0
2016-07-15T00:03:04.865Z,0
2016-07-15T00:04:05.547Z,0
2016-07-15T00:05:06.238Z,0
2016-07-15T00:06:06.241Z,0
2016-07-15T00:07:05.521Z,0
2016-07-15T00:08:04.789Z,0
2016-07-15T00:09:04.789Z,0
2016-07-15T00:10:06.184Z,0
2016-07-15T00:11:05.466Z,0
2016-07-15T00:12:05.459Z,0
2016-07-15T00:13:05.441Z,0
2016-07-15T00:14:06.141Z,0
2016-07-15T00:15:06.833Z,0
2016-07-15T00:16:05.403Z,0
2016-07-15T00:17:05.402Z,0
2016-07-15T00:18:05.375Z,0
2016-07-15T00:19:06.072Z,0
2016-07-15T00:20:05.348Z,0
2016-07-15T00:21:05.353Z,0
2016-07-15T00:22:05.322Z,0
2016-07-15T00:23:06.020Z,0
2016-07-15T00:24:05.308Z,0
2016-07-15T00:25:05.282Z,0
2016-07-15T00:26:05.991Z,0
2016-07-15T00:27:05.259Z,0
2016-07-15T00:28:05.259Z,0
2016-07-15T00:29:05.249Z,0
2016-07-15T00:30:05.928Z,0
2016-07-15T00:31:05.921Z,0
2016-07-15T00:32:05.203Z,0
2016-07-15T00:33:05.896Z,0
2016-07-15T00:34:05.184Z,0
2016-07-15T00:35:05.224Z,0
2016-07-15T00:36:05.157Z,0
2016-07-15T00:37:05.145Z,0
2016-07-15T00:38:04.420Z,0
2016-07-15T00:39:05.115Z,0
2016-07-15T00:40:06.530Z,0
2016-07-15T00:41:05.091Z,0
2016-07-15T00:42:05.076Z,0
2016-07-15T00:43:05.112Z,0
2016-07-15T00:44:05.762Z,0
2016-07-15T00:45:05.748Z,0
2016-07-15T00:46:05.746Z,0
2016-07-15T00:47:05.717Z,0
2016-07-15T00:48:05.013Z,0
2016-07-15T00:49:06.408Z,0
2016-07-15T00:50:04.980Z,0
2016-07-15T00:51:05.678Z,0
2016-07-15T00:52:04.262Z,0
2016-07-15T00:53:05.653Z,0
2016-07-15T00:54:05.636Z,0
2016-07-15T00:55:05.622Z,0
2016-07-15T00:56:04.901Z,0
2016-07-15T00:57:05.597Z,0
2016-07-15T00:58:04.880Z,0
2016-07-15T00:59:05.570Z,0
2016-07-15T01:00:04.168Z,0
2016-07-15T01:01:04.141Z,0
2016-07-15T01:02:05.538Z,0
2016-07-15T01:03:05.525Z,0
2016-07-15T01:04:04.098Z,0
2016-07-15T01:05:05.516Z,0
2016-07-15T01:06:06.192Z,0
2016-07-15T01:07:06.178Z,0
2016-07-15T01:08:05.471Z,0
2016-07-15T01:09:04.039Z,0
2016-07-15T01:10:04.743Z,0
2016-07-15T01:11:04.011Z,0
2016-07-15T01:12:05.414Z,0
2016-07-15T01:13:04.693Z,0
2016-07-15T01:14:04.682Z,0
2016-07-15T01:15:03.967Z,0
2016-07-15T01:16:04.653Z,0
2016-07-15T01:17:04.648Z,0
2016-07-15T01:18:04.636Z,0
2016-07-15T01:19:05.325Z,0
2016-07-15T01:20:04.623Z,0
2016-07-15T01:21:04.599Z,0
2016-07-15T01:22:04.610Z,0
2016-07-15T01:23:05.282Z,0
2016-07-15T01:24:05.263Z,0
2016-07-15T01:25:04.568Z,0
2016-07-15T01:26:03.827Z,0
2016-07-15T01:27:03.831Z,0
2016-07-15T01:28:05.210Z,0
2016-07-15T01:29:03.788Z,0
2016-07-15T01:30:03.782Z,0
2016-07-15T01:31:04.474Z,0
2016-07-15T01:32:04.470Z,0
2016-07-15T01:33:05.155Z,0
2016-07-15T01:34:05.148Z,0
2016-07-15T01:35:04.429Z,0
2016-07-15T01:36:05.121Z,0
2016-07-15T01:37:05.105Z,0
2016-07-15T01:38:03.677Z,0
2016-07-15T01:39:04.374Z,0
2016-07-15T01:40:04.360Z,0
2016-07-15T01:41:05.055Z,0
2016-07-15T01:42:05.037Z,0
2016-07-15T01:43:05.745Z,0
2016-07-15T01:44:05.725Z,0
2016-07-15T01:45:05.714Z,0
2016-07-15T01:46:04.290Z,0
2016-07-15T01:47:04.270Z,0
2016-07-15T01:48:04.979Z,0
2016-07-15T01:49:04.954Z,0
2016-07-15T01:50:04.233Z,0
2016-07-15T01:51:03.518Z,0
2016-07-15T01:52:04.920Z,0
2016-07-15T01:53:04.206Z,0
2016-07-15T01:54:04.205Z,0
2016-07-15T01:55:04.172Z,0
2016-07-15T01:56:04.165Z,0
2016-07-15T01:57:03.442Z,0
2016-07-15T01:58:04.852Z,0
2016-07-15T01:59:04.831Z,0
2016-07-15T02:00:04.112Z,0
2016-07-15T02:01:04.815Z,0
2016-07-15T02:02:05.500Z,0
2016-07-15T02:03:04.802Z,0
2016-07-15T02:04:04.073Z,0
2016-07-15T02:05:04.046Z,0
2016-07-15T02:06:04.751Z,0
2016-07-15T02:07:04.735Z,0
2016-07-15T02:08:04.723Z,0
2016-07-15T02:09:03.299Z,0
2016-07-15T02:10:03.279Z,0
2016-07-15T02:11:03.272Z,0
2016-07-15T02:12:03.967Z,0
2016-07-15T02:13:05.370Z,0
2016-07-15T02:14:03.960Z,0
2016-07-15T02:15:04.634Z,0
2016-07-15T02:16:03.916Z,0
2016-07-15T02:17:04.618Z,0
2016-07-15T02:18:03.891Z,0
2016-07-15T02:19:03.878Z,0
2016-07-15T02:20:03.867Z,0
2016-07-15T02:21:03.860Z,0
2016-07-15T02:22:04.548Z,0
2016-07-15T02:23:03.128Z,0
2016-07-15T02:24:04.527Z,0
2016-07-15T02:25:04.509Z,0
2016-07-15T02:26:03.798Z,0
2016-07-15T02:27:03.076Z,0
2016-07-15T02:28:03.807Z,0
2016-07-15T02:29:03.053Z,0
2016-07-15T02:30:04.648Z,0
2016-07-15T02:31:04.442Z,0
2016-07-15T02:32:03.719Z,0
2016-07-15T02:33:03.005Z,0
2016-07-15T02:34:04.411Z,0
2016-07-15T02:35:03.688Z,0
2016-07-15T02:36:03.678Z,0
2016-07-15T02:37:04.361Z,0
2016-07-15T02:38:03.648Z,0
2016-07-15T02:39:02.929Z,0
2016-07-15T02:40:05.038Z,0
2016-07-15T02:41:03.646Z,0
2016-07-15T02:42:04.300Z,0
2016-07-15T02:43:03.587Z,0
2016-07-15T02:44:04.279Z,0
2016-07-15T02:45:04.263Z,0
2016-07-15T02:46:02.839Z,0
2016-07-15T02:47:03.557Z,0
2016-07-15T02:48:04.229Z,0
2016-07-15T02:49:02.807Z,0
2016-07-15T02:50:02.794Z,0
2016-07-15T02:51:02.777Z,0
2016-07-15T02:52:04.182Z,0
2016-07-15T02:53:03.464Z,0
2016-07-15T02:54:04.866Z,0
2016-07-15T02:55:04.141Z,0
2016-07-15T02:56:04.137Z,0
2016-07-15T02:57:04.118Z,0
2016-07-15T02:58:04.820Z,0
2016-07-15T02:59:03.388Z,4
2016-07-15T03:00:04.788Z,4
2016-07-15T03:01:04.070Z,4
2016-07-15T03:02:04.053Z,0
2016-07-15T03:03:04.054Z,0
2016-07-15T03:04:04.112Z,4
2016-07-15T03:05:03.315Z,4
2016-07-15T03:06:03.304Z,4
2016-07-15T03:07:04.012Z,4
2016-07-15T03:08:03.282Z,8
2016-07-15T03:09:03.261Z,4
2016-07-15T03:10:03.254Z,8
2016-07-15T03:11:03.244Z,4
2016-07-15T03:12:03.932Z,8
2016-07-15T03:13:02.515Z,12
2016-07-15T03:14:03.200Z,12
2016-07-15T03:15:03.194Z,12
2016-07-15T03:16:03.888Z,12
2016-07-15T03:17:02.480Z,16
2016-07-15T03:18:03.862Z,16
2016-07-15T03:19:02.442Z,16
2016-07-15T03:20:03.131Z,16
2016-07-15T03:21:03.119Z,20
2016-07-15T03:22:03.101Z,24
2016-07-15T03:23:03.803Z,28
2016-07-15T03:24:03.082Z,28
2016-07-15T03:25:02.360Z,28
2016-07-15T03:26:03.775Z,32
2016-07-15T03:27:03.758Z,36
2016-07-15T03:28:03.068Z,40
2016-07-15T03:29:03.723Z,44
2016-07-15T03:30:03.002Z,52
2016-07-15T03:31:03.703Z,60
2016-07-15T03:32:03.691Z,64
2016-07-15T03:33:02.978Z,64
2016-07-15T03:34:03.674Z,68
2016-07-15T03:35:02.941Z,80
2016-07-15T03:36:04.352Z,88
2016-07-15T03:37:02.937Z,100
2016-07-15T03:38:02.917Z,104
2016-07-15T03:39:02.892Z,104
2016-07-15T03:40:03.588Z,108
2016-07-15T03:41:02.164Z,116
2016-07-15T03:42:02.152Z,128
2016-07-15T03:43:02.853Z,140
2016-07-15T03:44:02.128Z,140
2016-07-15T03:45:02.834Z,144
2016-07-15T03:46:02.819Z,144
2016-07-15T03:47:03.521Z,148
2016-07-15T03:48:02.080Z,160
2016-07-15T03:49:03.484Z,168
2016-07-15T03:50:03.477Z,180
2016-07-15T03:51:02.047Z,188
2016-07-15T03:52:03.440Z,204
2016-07-15T03:53:02.020Z,212
2016-07-15T03:54:02.017Z,216
2016-07-15T03:55:01.994Z,216
2016-07-15T03:56:02.701Z,228
2016-07-15T03:57:01.976Z,248
2016-07-15T03:58:03.376Z,264
2016-07-15T03:59:02.651Z,280
2016-07-15T04:00:02.635Z,300
2016-07-15T04:01:02.628Z,328
2016-07-15T04:02:01.914Z,332
2016-07-15T04:03:03.309Z,316
2016-07-15T04:04:03.299Z,296
2016-07-15T04:05:04.007Z,272
2016-07-15T04:06:02.575Z,276
2016-07-15T04:07:03.269Z,296
2016-07-15T04:08:03.981Z,316
2016-07-15T04:09:02.532Z,340
2016-07-15T04:10:02.536Z,360
2016-07-15T04:11:02.505Z,376
2016-07-15T04:12:01.793Z,392
2016-07-15T04:13:02.481Z,412
2016-07-15T04:14:03.181Z,428
2016-07-15T04:15:02.459Z,432
2016-07-15T04:16:03.860Z,448
2016-07-15T04:17:02.432Z,472
2016-07-15T04:18:03.832Z,500
2016-07-15T04:19:01.713Z,508
2016-07-15T04:20:02.399Z,512
2016-07-15T04:21:02.380Z,532
2016-07-15T04:22:02.371Z,580
2016-07-15T04:23:03.068Z,592
2016-07-15T04:24:01.638Z,592
2016-07-15T04:25:01.632Z,600
2016-07-15T04:26:03.028Z,616
2016-07-15T04:27:03.016Z,624
2016-07-15T04:28:02.299Z,632
2016-07-15T04:29:01.575Z,660
2016-07-15T04:30:01.773Z,700
2016-07-15T04:31:01.565Z,728
2016-07-15T04:32:02.251Z,760
2016-07-15T04:33:02.949Z,796
2016-07-15T04:34:02.227Z,808
2016-07-15T04:35:02.924Z,844
2016-07-15T04:36:02.206Z,908
2016-07-15T04:37:02.909Z,984
2016-07-15T04:38:02.889Z,1032
2016-07-15T04:39:02.167Z,1056
2016-07-15T04:40:02.151Z,1104
2016-07-15T04:41:03.557Z,1140
2016-07-15T04:42:02.858Z,1168
2016-07-15T04:43:03.542Z,1228
2016-07-15T04:44:01.416Z,1288
2016-07-15T04:45:02.821Z,1360
2016-07-15T04:46:02.784Z,1412
2016-07-15T04:47:02.071Z,1472
2016-07-15T04:48:02.775Z,1512
2016-07-15T04:49:02.766Z,1528
2016-07-15T04:50:03.450Z,1544
2016-07-15T04:51:01.310Z,1572
2016-07-15T04:52:02.016Z,1628
2016-07-15T04:53:02.048Z,1656
2016-07-15T04:54:01.281Z,1604
2016-07-15T04:55:01.973Z,1580
2016-07-15T04:56:02.685Z,1604
2016-07-15T04:57:02.652Z,1700
2016-07-15T04:58:01.939Z,1780
2016-07-15T04:59:01.919Z,1868
2016-07-15T05:00:01.208Z,1952
2016-07-15T05:01:01.898Z,2036
2016-07-15T05:02:01.888Z,2092
2016-07-15T05:03:01.165Z,2124
2016-07-15T05:04:01.861Z,2148
2016-07-15T05:05:03.266Z,2152
2016-07-15T05:06:01.131Z,2148
2016-07-15T05:07:01.122Z,2124
2016-07-15T05:08:01.815Z,2172
2016-07-15T05:09:01.093Z,2156
2016-07-15T05:10:01.791Z,2188
2016-07-15T05:11:01.071Z,2320
2016-07-15T05:12:01.057Z,2492
2016-07-15T05:13:01.759Z,2616
2016-07-15T05:14:01.030Z,2572
2016-07-15T05:15:01.024Z,2484
2016-07-15T05:16:02.427Z,2496
2016-07-15T05:17:01.003Z,2328
2016-07-15T05:18:00.994Z,2268
2016-07-15T05:19:02.403Z,2272
2016-07-15T05:20:02.389Z,2200
2016-07-15T05:21:01.659Z,2224
2016-07-15T05:22:01.644Z,2248
2016-07-15T05:23:01.653Z,2172
2016-07-15T05:24:03.053Z,2172
2016-07-15T05:25:01.617Z,2112
2016-07-15T05:26:01.615Z,2136
2016-07-15T05:27:01.594Z,2128
2016-07-15T05:28:01.590Z,2044
2016-07-15T05:29:01.568Z,2080
2016-07-15T05:30:02.259Z,2296
2016-07-15T05:31:01.554Z,2600
2016-07-15T05:32:00.818Z,2880
2016-07-15T05:33:00.810Z,2808
2016-07-15T05:34:01.508Z,2632
2016-07-15T05:35:02.200Z,2728
2016-07-15T05:36:01.480Z,3004
2016-07-15T05:37:01.470Z,3184
2016-07-15T05:38:00.752Z,3168
2016-07-15T05:39:02.158Z,3236
2016-07-15T05:40:00.729Z,3348
2016-07-15T05:41:01.436Z,3416
2016-07-15T05:42:02.121Z,3388
2016-07-15T05:43:01.401Z,3440
2016-07-15T05:44:01.391Z,3512
2016-07-15T05:45:02.079Z,3488
2016-07-15T05:46:01.368Z,3516
2016-07-15T05:47:02.056Z,3512
2016-07-15T05:48:01.343Z,3532
2016-07-15T05:49:00.623Z,3656
2016-07-15T05:50:02.023Z,3776
2016-07-15T05:51:02.011Z,3664
2016-07-15T05:52:02.005Z,3852
2016-07-15T05:53:02.696Z,4016
2016-07-15T05:54:01.980Z,3968
2016-07-15T05:55:01.261Z,4040
2016-07-15T05:56:01.245Z,4144
2016-07-15T05:57:01.237Z,4268
2016-07-15T05:58:01.219Z,4372
2016-07-15T05:59:01.219Z,4312
2016-07-15T06:00:01.205Z,4268
2016-07-15T06:01:01.195Z,4096
2016-07-15T06:02:01.889Z,3940
2016-07-15T06:03:00.461Z,4016
2016-07-15T06:04:01.161Z,4116
2016-07-15T06:05:01.855Z,4160
2016-07-15T06:06:01.841Z,4344
2016-07-15T06:07:01.126Z,4412
2016-07-15T06:08:02.527Z,4532
2016-07-15T06:09:00.394Z,4660
2016-07-15T06:10:01.087Z,4632
2016-07-15T06:11:01.083Z,4556
2016-07-15T06:12:01.769Z,4364
2016-07-15T06:13:01.766Z,4288
2016-07-15T06:14:01.058Z,4296
2016-07-15T06:15:01.737Z,4288
2016-07-15T06:16:01.738Z,4128
2016-07-15T06:17:01.007Z,4060
2016-07-15T06:18:00.294Z,3784
2016-07-15T06:19:00.284Z,3936
2016-07-15T06:20:00.971Z,4424
2016-07-15T06:21:00.971Z,5176
2016-07-15T06:22:01.660Z,6052
2016-07-15T06:23:01.650Z,6312
2016-07-15T06:24:00.220Z,6108
2016-07-15T06:25:00.211Z,5720
2016-07-15T06:26:00.908Z,5252
2016-07-15T06:27:00.187Z,4616
2016-07-15T06:28:01.591Z,4584
2016-07-15T06:29:00.217Z,4308
2016-07-15T06:30:01.071Z,4100
2016-07-15T06:31:00.854Z,4184
2016-07-15T06:32:01.550Z,4196
2016-07-15T06:33:00.129Z,4376
2016-07-15T06:34:02.236Z,3932
2016-07-15T06:35:00.807Z,4124
2016-07-15T06:36:00.806Z,3704
2016-07-15T06:37:01.560Z,3972
2016-07-15T06:38:01.502Z,3400
2016-07-15T06:39:01.483Z,3380
2016-07-15T06:40:00.811Z,3628
2016-07-15T06:41:00.030Z,4660
2016-07-15T06:42:01.440Z,5100
2016-07-15T06:43:02.133Z,7440
2016-07-15T06:44:01.410Z,8224
2016-07-15T06:44:59.993Z,7144
2016-07-15T06:45:59.978Z,9464
2016-07-15T06:47:02.099Z,9676
2016-07-15T06:48:01.370Z,8968
2016-07-15T06:49:02.073Z,8016
2016-07-15T06:49:59.942Z,6904
2016-07-15T06:51:00.682Z,7464
2016-07-15T06:51:59.976Z,6236
2016-07-15T06:53:01.361Z,6712
2016-07-15T06:54:01.351Z,7476
2016-07-15T06:55:01.324Z,7212
2016-07-15T06:56:00.581Z,6844
2016-07-15T06:57:00.579Z,6536
2016-07-15T06:58:01.321Z,6220
2016-07-15T06:59:01.969Z,6340
2016-07-15T07:00:00.549Z,6184
2016-07-15T07:00:59.821Z,6028
2016-07-15T07:02:01.225Z,7172
2016-07-15T07:02:59.800Z,7672
2016-07-15T07:04:00.548Z,8628
2016-07-15T07:04:59.779Z,9612
2016-07-15T07:06:01.177Z,9560
2016-07-15T07:07:00.465Z,8352
2016-07-15T07:07:59.757Z,8016
2016-07-15T07:09:00.445Z,7736
2016-07-15T07:10:00.450Z,7124
2016-07-15T07:11:01.139Z,7864
2016-07-15T07:12:00.412Z,8032
2016-07-15T07:13:00.405Z,8684
2016-07-15T07:14:00.403Z,8796
2016-07-15T07:15:01.091Z,9348
2016-07-15T07:15:59.675Z,10360
2016-07-15T07:17:00.373Z,10180
2016-07-15T07:18:00.357Z,9556
2016-07-15T07:19:00.352Z,8856
2016-07-15T07:20:00.337Z,6948
2016-07-15T07:21:01.035Z,8248
2016-07-15T07:22:00.326Z,6648
2016-07-15T07:23:00.309Z,5120
2016-07-15T07:24:01.003Z,6424
2016-07-15T07:25:00.289Z,6992
2016-07-15T07:25:59.577Z,4804
2016-07-15T07:27:00.978Z,5876
2016-07-15T07:28:00.973Z,6964
2016-07-15T07:28:59.540Z,7380
2016-07-15T07:30:00.944Z,6316
2016-07-15T07:31:00.934Z,6292
2016-07-15T07:32:00.221Z,7592
2016-07-15T07:33:00.210Z,9856
2016-07-15T07:34:00.207Z,8852
2016-07-15T07:35:00.194Z,17600
2016-07-15T07:35:59.477Z,19488
2016-07-15T07:37:00.166Z,53632
2016-07-15T07:38:00.869Z,10332
2016-07-15T07:39:00.167Z,9500
2016-07-15T07:40:00.858Z,6884
2016-07-15T07:41:00.131Z,7124
2016-07-15T07:42:00.125Z,6456
2016-07-15T07:43:00.123Z,7108
2016-07-15T07:44:01.522Z,7292
2016-07-15T07:44:59.399Z,8412
2016-07-15T07:46:00.796Z,5516
2016-07-15T07:47:00.788Z,6648
2016-07-15T07:48:00.777Z,8364
2016-07-15T07:49:00.069Z,8664
2016-07-15T07:50:00.754Z,8068
2016-07-15T07:51:00.046Z,55744
2016-07-15T07:51:59.329Z,48064
2016-07-15T07:53:00.030Z,10952
2016-07-15T07:54:00.020Z,51136
2016-07-15T07:54:59.302Z,52736
2016-07-15T07:56:00.710Z,52640
2016-07-15T07:56:59.289Z,52992
2016-07-15T07:57:59.990Z,49536
2016-07-15T07:59:00.680Z,49504
2016-07-15T07:59:59.267Z,50624
2016-07-15T08:00:59.964Z,51168
2016-07-15T08:01:59.960Z,52224
2016-07-15T08:02:59.237Z,52736
2016-07-15T08:03:59.951Z,55328
2016-07-15T08:04:59.940Z,52832
2016-07-15T08:06:00.646Z,7760
2016-07-15T08:06:59.222Z,5860
2016-07-15T08:07:59.215Z,11728
2016-07-15T08:08:59.917Z,58752
2016-07-15T08:10:00.626Z,21536
2016-07-15T08:10:59.208Z,10008
2016-07-15T08:11:59.899Z,8852
2016-07-15T08:12:59.187Z,9248
2016-07-15T08:14:01.301Z,6292
2016-07-15T08:15:00.589Z,4036
2016-07-15T08:16:00.584Z,3696
2016-07-15T08:17:00.582Z,3528
2016-07-15T08:17:59.165Z,2880
2016-07-15T08:18:59.158Z,3068
2016-07-15T08:19:59.851Z,5412
2016-07-15T08:20:59.847Z,6432
2016-07-15T08:22:00.544Z,6436
2016-07-15T08:23:00.544Z,54944
2016-07-15T08:23:59.823Z,28160
2016-07-15T08:24:59.109Z,58912
2016-07-15T08:25:59.817Z,63680
2016-07-15T08:26:59.800Z,65792
2016-07-15T08:28:00.509Z,62688
2016-07-15T08:28:59.787Z,56832
2016-07-15T08:29:59.991Z,52096
2016-07-15T08:30:59.780Z,52384
2016-07-15T08:31:59.065Z,54336
2016-07-15T08:32:59.071Z,58400
2016-07-15T08:33:59.758Z,61024
2016-07-15T08:35:00.466Z,65952
2016-07-15T08:35:59.049Z,52384
2016-07-15T08:36:59.753Z,64544
2016-07-15T08:38:00.454Z,64288
2016-07-15T08:39:00.459Z,27232
2016-07-15T08:39:59.032Z,8160
2016-07-15T08:40:59.025Z,10924
2016-07-15T08:41:59.024Z,7576
2016-07-15T08:42:59.734Z,52096
2016-07-15T08:43:59.019Z,63808
2016-07-15T08:45:00.425Z,18016
2016-07-15T08:45:59.719Z,70176
2016-07-15T08:47:00.422Z,70944
2016-07-15T08:47:59.016Z,73504
2016-07-15T08:48:59.698Z,44896
2016-07-15T08:50:01.116Z,13104
2016-07-15T08:51:00.404Z,29504
2016-07-15T08:51:59.694Z,8756
2016-07-15T08:53:00.404Z,8816
2016-07-15T08:54:00.390Z,14772
2016-07-15T08:55:00.392Z,9812
2016-07-15T08:56:00.380Z,9264
2016-07-15T08:56:58.965Z,8680
2016-07-15T08:58:01.081Z,7812
2016-07-15T08:59:00.383Z,5496
2016-07-15T08:59:59.654Z,4096
2016-07-15T09:00:59.657Z,3312
2016-07-15T09:01:59.642Z,3636
2016-07-15T09:02:59.637Z,4700
2016-07-15T09:04:00.338Z,7828
2016-07-15T09:05:00.338Z,11148
2016-07-15T09:05:59.623Z,14416
2016-07-15T09:06:58.902Z,26048
2016-07-15T09:08:01.017Z,14836
2016-07-15T09:08:58.888Z,27392
2016-07-15T09:10:00.299Z,19712
2016-07-15T09:10:59.593Z,73568
2016-07-15T09:11:59.573Z,54592
2016-07-15T09:13:00.985Z,62400
2016-07-15T09:13:59.565Z,74464
2016-07-15T09:14:59.556Z,36992
2016-07-15T09:16:00.262Z,70912
2016-07-15T09:17:00.966Z,61952
2016-07-15T09:17:58.833Z,80768
2016-07-15T09:19:00.241Z,22464
2016-07-15T09:19:59.530Z,9152
2016-07-15T09:20:59.528Z,8196
2016-07-15T09:22:00.227Z,8776
2016-07-15T09:22:59.519Z,25824
2016-07-15T09:23:59.513Z,8908
2016-07-15T09:24:59.506Z,8332
2016-07-15T09:25:59.506Z,12076
2016-07-15T09:27:00.254Z,15456
2016-07-15T09:27:58.783Z,13628
2016-07-15T09:28:59.484Z,14524
2016-07-15T09:29:59.486Z,77728
2016-07-15T09:31:00.897Z,16004
2016-07-15T09:31:59.480Z,8352
2016-07-15T09:32:59.454Z,5752
2016-07-15T09:33:59.460Z,6548
2016-07-15T09:34:58.739Z,8176
2016-07-15T09:36:00.150Z,8852
2016-07-15T09:36:59.485Z,8672
2016-07-15T09:38:00.139Z,9096
2016-07-15T09:38:59.425Z,15120
2016-07-15T09:40:00.122Z,12356
2016-07-15T09:40:58.707Z,13760
2016-07-15T09:41:59.398Z,98208
2016-07-15T09:42:59.396Z,97024
2016-07-15T09:43:59.396Z,29568
2016-07-15T09:44:59.384Z,87104
2016-07-15T09:45:59.376Z,78880
2016-07-15T09:46:58.674Z,73568
2016-07-15T09:47:58.660Z,57056
2016-07-15T09:49:00.784Z,68320
2016-07-15T09:49:58.647Z,35296
2016-07-15T09:50:59.354Z,19904
2016-07-15T09:51:59.346Z,79328
2016-07-15T09:52:59.340Z,14060
2016-07-15T09:53:58.624Z,61216
2016-07-15T09:54:58.623Z,11196
2016-07-15T09:55:59.328Z,8404
2016-07-15T09:56:59.325Z,7072
2016-07-15T09:57:59.315Z,5324
2016-07-15T09:59:00.721Z,5868
2016-07-15T09:59:59.311Z,6708
2016-07-15T10:01:00.011Z,9392
2016-07-15T10:02:00.008Z,28704
2016-07-15T10:02:59.294Z,45824
2016-07-15T10:03:59.994Z,42112
2016-07-15T10:04:59.285Z,11188
2016-07-15T10:06:00.080Z,13032
2016-07-15T10:06:59.284Z,9464
2016-07-15T10:07:59.270Z,65568
2016-07-15T10:08:59.260Z,13856
2016-07-15T10:09:59.957Z,25568
2016-07-15T10:10:59.963Z,19776
2016-07-15T10:11:59.237Z,19712
2016-07-15T10:12:59.955Z,81600
2016-07-15T10:13:58.521Z,95104
2016-07-15T10:14:59.223Z,99776
2016-07-15T10:15:59.225Z,50112
2016-07-15T10:16:58.505Z,21120
2016-07-15T10:17:59.208Z,77856
2016-07-15T10:18:59.217Z,22592
2016-07-15T10:19:59.202Z,25760
2016-07-15T10:20:59.909Z,68480
2016-07-15T10:21:59.192Z,45408
2016-07-15T10:22:58.480Z,11268
2016-07-15T10:23:59.184Z,9224
2016-07-15T10:24:59.176Z,10564
2016-07-15T10:25:59.877Z,12296
2016-07-15T10:26:59.174Z,14200
2016-07-15T10:27:59.159Z,14696
2016-07-15T10:28:59.163Z,13468
2016-07-15T10:29:59.361Z,10708
2016-07-15T10:30:59.146Z,8324
2016-07-15T10:31:59.850Z,8156
2016-07-15T10:32:58.430Z,8368
2016-07-15T10:33:59.839Z,8576
2016-07-15T10:34:59.129Z,11160
2016-07-15T10:35:59.113Z,30656
2016-07-15T10:36:58.408Z,12536
2016-07-15T10:37:59.814Z,57856
2016-07-15T10:38:59.098Z,17184
2016-07-15T10:40:00.013Z,59744
2016-07-15T10:40:59.088Z,30112
2016-07-15T10:41:59.082Z,70016
2016-07-15T10:43:00.542Z,65632
2016-07-15T10:43:58.414Z,20352
2016-07-15T10:44:59.059Z,17632
2016-07-15T10:45:59.056Z,30720
2016-07-15T10:46:59.052Z,21472
2016-07-15T10:47:59.754Z,14356
2016-07-15T10:48:59.748Z,15348
2016-07-15T10:49:59.040Z,20960
2016-07-15T10:50:58.321Z,18656
2016-07-15T10:51:58.316Z,26144
2016-07-15T10:52:59.023Z,13888
2016-07-15T10:53:58.298Z,24576
2016-07-15T10:54:59.713Z,32768
2016-07-15T10:55:58.996Z,51776
2016-07-15T10:56:58.997Z,78016
2016-07-15T10:57:58.988Z,38208
2016-07-15T10:58:58.982Z,75680
2016-07-15T10:59:58.977Z,25664
2016-07-15T11:00:59.679Z,14748
2016-07-15T11:01:58.969Z,13896
2016-07-15T11:02:58.959Z,12764
2016-07-15T11:03:58.242Z,14068
2016-07-15T11:04:58.946Z,14688
2016-07-15T11:05:58.951Z,73280
2016-07-15T11:06:58.234Z,104160
2016-07-15T11:07:58.934Z,34880
2016-07-15T11:08:58.920Z,90208
2016-07-15T11:09:59.627Z,90976
2016-07-15T11:10:58.916Z,93792
2016-07-15T11:11:58.907Z,102720
2016-07-15T11:12:58.907Z,109568
2016-07-15T11:13:58.902Z,104800
2016-07-15T11:14:59.604Z,120096
2016-07-15T11:16:00.311Z,125120
2016-07-15T11:16:59.599Z,128224
2016-07-15T11:17:58.892Z,35808
2016-07-15T11:18:58.887Z,105216
2016-07-15T11:19:58.186Z,71232
2016-07-15T11:20:58.185Z,45312
2016-07-15T11:21:58.883Z,20832
2016-07-15T11:22:59.587Z,35616
2016-07-15T11:23:59.598Z,75456
2016-07-15T11:24:58.872Z,57472
2016-07-15T11:25:59.582Z,90144
2016-07-15T11:26:58.167Z,94976
2016-07-15T11:27:58.160Z,37056
2016-07-15T11:28:58.875Z,113312
2016-07-15T11:29:58.170Z,22624
2016-07-15T11:30:58.868Z,86336
2016-07-15T11:31:59.580Z,29312
2016-07-15T11:32:58.174Z,62784
2016-07-15T11:33:59.576Z,89568
2016-07-15T11:34:58.871Z,86496
2016-07-15T11:35:59.575Z,26848
2016-07-15T11:36:58.870Z,25472
2016-07-15T11:37:58.921Z,71008
2016-07-15T11:38:58.863Z,82848
2016-07-15T11:39:59.574Z,81792
2016-07-15T11:40:58.160Z,19616
2016-07-15T11:41:58.864Z,14852
2016-07-15T11:42:58.869Z,15040
2016-07-15T11:43:58.874Z,107936
2016-07-15T11:44:58.152Z,20000
2016-07-15T11:45:58.869Z,109568
2016-07-15T11:46:59.569Z,11120
2016-07-15T11:47:58.856Z,36544
2016-07-15T11:48:58.914Z,110624
2016-07-15T11:49:58.863Z,115136
2016-07-15T11:50:58.883Z,94208
2016-07-15T11:51:58.157Z,103296
2016-07-15T11:52:59.564Z,106848
2016-07-15T11:53:58.908Z,100320
2016-07-15T11:54:58.852Z,31008
2016-07-15T11:55:58.860Z,99168
2016-07-15T11:56:58.853Z,88288
2016-07-15T11:57:59.571Z,43232
2016-07-15T11:58:58.169Z,39904
2016-07-15T11:59:59.563Z,90560
2016-07-15T12:00:58.864Z,97408
2016-07-15T12:01:58.861Z,80960
2016-07-15T12:02:59.576Z,106688
2016-07-15T12:03:58.161Z,71616
2016-07-15T12:04:58.865Z,30720
2016-07-15T12:05:58.158Z,36960
2016-07-15T12:07:00.287Z,22656
2016-07-15T12:07:58.156Z,12952
2016-07-15T12:08:58.870Z,8856
2016-07-15T12:09:58.865Z,9360
2016-07-15T12:10:59.051Z,13216
2016-07-15T12:11:58.161Z,30240
2016-07-15T12:12:59.575Z,9424
2016-07-15T12:13:59.568Z,9852
2016-07-15T12:14:58.163Z,11544
2016-07-15T12:15:58.870Z,12948
2016-07-15T12:16:58.861Z,14232
2016-07-15T12:17:58.860Z,15740
2016-07-15T12:18:59.569Z,12968
2016-07-15T12:19:59.563Z,11588
2016-07-15T12:20:58.861Z,11924
2016-07-15T12:21:59.568Z,13396
2016-07-15T12:22:58.847Z,15908
2016-07-15T12:23:59.557Z,18656
2016-07-15T12:24:58.846Z,97792
2016-07-15T12:25:58.844Z,85824
2016-07-15T12:26:59.547Z,90496
2016-07-15T12:27:58.844Z,43136
2016-07-15T12:28:58.123Z,29184
2016-07-15T12:29:59.034Z,24928
2016-07-15T12:30:58.168Z,20832
2016-07-15T12:31:58.829Z,23968
2016-07-15T12:32:58.823Z,34752
2016-07-15T12:33:59.528Z,19904
2016-07-15T12:34:58.106Z,16672
2016-07-15T12:35:59.741Z,16896
2016-07-15T12:36:58.803Z,18976
2016-07-15T12:37:59.524Z,15752
2016-07-15T12:38:58.096Z,16140
2016-07-15T12:39:59.512Z,13492
2016-07-15T12:40:58.807Z,11212
2016-07-15T12:41:58.787Z,9604
2016-07-15T12:42:58.788Z,7452
2016-07-15T12:43:58.787Z,5764
2016-07-15T12:44:58.776Z,4536
2016-07-15T12:45:59.480Z,4388
2016-07-15T12:46:59.482Z,4844
2016-07-15T12:47:58.062Z,5444
2016-07-15T12:48:58.060Z,6268
2016-07-15T12:50:00.174Z,7976
2016-07-15T12:50:59.460Z,15496
2016-07-15T12:51:59.459Z,20000
2016-07-15T12:53:00.158Z,41984
2016-07-15T12:53:58.746Z,90240
2016-07-15T12:54:59.443Z,89632
2016-07-15T12:55:59.427Z,84000
2016-07-15T12:56:59.429Z,80192
2016-07-15T12:57:58.741Z,81184
2016-07-15T12:58:58.719Z,62560
2016-07-15T12:59:58.710Z,79584
2016-07-15T13:00:58.708Z,42656
2016-07-15T13:01:58.704Z,33664
2016-07-15T13:02:58.700Z,48160
2016-07-15T13:04:00.113Z,51296
2016-07-15T13:04:58.696Z,53024
2016-07-15T13:05:58.691Z,37472
2016-07-15T13:06:57.990Z,42688
2016-07-15T13:07:58.726Z,20320
2016-07-15T13:09:00.309Z,15952
2016-07-15T13:10:00.109Z,13156
2016-07-15T13:10:59.387Z,11776
2016-07-15T13:11:58.678Z,11096
2016-07-15T13:12:58.702Z,11104
2016-07-15T13:13:58.679Z,12488
2016-07-15T13:14:59.386Z,19904
2016-07-15T13:15:58.664Z,24128
2016-07-15T13:16:58.664Z,73056
2016-07-15T13:17:58.659Z,95936
2016-07-15T13:18:59.359Z,93600
2016-07-15T13:19:58.646Z,94368
2016-07-15T13:21:00.061Z,61056
2016-07-15T13:21:58.643Z,21984
2016-07-15T13:22:58.635Z,19360
2016-07-15T13:23:59.357Z,16128
2016-07-15T13:24:58.644Z,17152
2016-07-15T13:25:58.629Z,17536
2016-07-15T13:26:59.339Z,17920
2016-07-15T13:28:00.049Z,18240
2016-07-15T13:28:59.332Z,51136
2016-07-15T13:29:59.325Z,64928
2016-07-15T13:30:57.903Z,65408